Time;durP1;ratioP1;P1;durP2;ratioP2;P2;SDS_P1;SDS_P2;PMS_P1;PMS_P2;Temp;Humidity;BMP_temperature;BMP_pressure;BME280_temperature;BME280_humidity;BME280_pressure;Samples;Min_cycle;Max_cycle;Signal;HPM_P1;HPM_P2
2021/01/06 00:00:41;;;;;;;28.38;15.43;;;;;;;2.68;100.00;100098.59;4998776;28;20056;-66
2021/01/06 00:03:26;;;;;;;28.75;16.15;;;;;;;2.76;100.00;100091.91;4998781;28;20468;-67
2021/01/06 00:06:13;;;;;;;23.92;14.60;;;;;;;2.74;100.00;100095.56;5013479;28;20088;-67
2021/01/06 00:08:58;;;;;;;26.45;15.18;;;;;;;2.72;100.00;100092.19;5013257;28;20048;-66
2021/01/06 00:11:42;;;;;;;30.02;16.38;;;;;;;2.70;100.00;100105.44;4998915;28;20081;-67
2021/01/06 00:14:29;;;;;;;28.80;16.92;;;;;;;2.67;100.00;100099.53;4998745;28;20108;-67
2021/01/06 00:17:13;;;;;;;30.13;16.48;;;;;;;2.68;100.00;100090.69;4998437;28;20533;-67
2021/01/06 00:19:57;;;;;;;30.00;16.83;;;;;;;2.70;100.00;100092.28;4998589;28;20060;-67
2021/01/06 00:22:41;;;;;;;30.67;15.40;;;;;;;2.77;100.00;100095.38;4998583;28;20077;-68
2021/01/06 00:25:28;;;;;;;29.92;16.17;;;;;;;2.75;100.00;100098.09;5013134;28;20112;-67
2021/01/06 00:28:14;;;;;;;30.58;16.52;;;;;;;2.72;100.00;100108.00;4998087;28;20195;-67
2021/01/06 00:30:59;;;;;;;25.88;15.27;;;;;;;2.67;100.00;100104.81;4998249;28;20115;-67
2021/01/06 00:33:45;;;;;;;32.42;16.75;;;;;;;2.70;100.00;100097.56;4998423;28;20077;-67
2021/01/06 00:36:30;;;;;;;29.50;16.90;;;;;;;2.71;100.00;100095.78;5013133;28;20080;-66
2021/01/06 00:39:13;;;;;;;26.95;16.35;;;;;;;2.74;100.00;100100.84;5013286;28;20052;-67
2021/01/06 00:41:57;;;;;;;33.60;17.20;;;;;;;2.75;100.00;100110.41;4998423;28;20048;-67
2021/01/06 00:44:41;;;;;;;27.45;15.15;;;;;;;2.65;100.00;100094.38;4998423;28;20049;-66
2021/01/06 00:47:25;;;;;;;26.35;15.75;;;;;;;2.67;100.00;100110.06;5013210;28;20065;-65
2021/01/06 00:50:10;;;;;;;28.73;16.38;;;;;;;2.71;100.00;100101.88;4987769;28;20057;-68
2021/01/06 00:53:05;;;;;;;28.10;15.45;;;;;;;2.69;100.00;100108.16;5001994;28;20080;-66
2021/01/06 00:55:50;;;;;;;28.15;15.65;;;;;;;2.69;100.00;100097.66;5001703;28;20044;-68
2021/01/06 00:58:34;;;;;;;27.58;15.85;;;;;;;2.71;100.00;100095.78;5001861;28;20080;-69
2021/01/06 01:01:18;;;;;;;26.20;14.68;;;;;;;2.68;100.00;100094.19;5001906;28;20053;-68
2021/01/06 01:04:02;;;;;;;27.98;15.60;;;;;;;2.69;100.00;100103.75;4987919;28;20056;-66
2021/01/06 01:06:47;;;;;;;24.98;14.68;;;;;;;2.69;100.00;100103.75;5001569;28;20076;-68
2021/01/06 01:09:31;;;;;;;29.77;16.08;;;;;;;2.67;100.00;100102.16;5001443;28;20049;-68
2021/01/06 01:12:14;;;;;;;24.35;14.77;;;;;;;2.68;100.00;100104.72;5001759;28;20049;-65
2021/01/06 01:14:58;;;;;;;24.67;14.32;;;;;;;2.67;100.00;100107.44;5001675;28;20053;-68
2021/01/06 01:17:44;;;;;;;27.48;15.38;;;;;;;2.65;100.00;100111.97;5016178;28;20490;-67
2021/01/06 01:20:28;;;;;;;28.55;15.65;;;;;;;2.66;100.00;100113.66;4987761;28;20049;-67
2021/01/06 01:23:18;;;;;;;28.25;15.48;;;;;;;2.62;100.00;100107.72;5016335;28;20096;-67
2021/01/06 01:26:02;;;;;;;27.83;15.55;;;;;;;2.67;100.00;100112.69;5001230;28;20045;-67
2021/01/06 01:28:46;;;;;;;27.98;15.98;;;;;;;2.63;100.00;100109.41;5016052;28;20044;-68
2021/01/06 01:31:33;;;;;;;26.20;14.85;;;;;;;2.68;100.00;100106.50;5016150;28;20084;-68
2021/01/06 01:34:17;;;;;;;26.60;15.35;;;;;;;2.59;100.00;100105.31;5001361;28;20178;-68
2021/01/06 01:37:04;;;;;;;29.15;15.40;;;;;;;2.69;100.00;100113.44;5000961;28;20052;-67
2021/01/06 01:39:48;;;;;;;25.88;14.82;;;;;;;2.66;100.00;100109.25;4987952;28;20104;-67
2021/01/06 01:42:32;;;;;;;24.83;14.35;;;;;;;2.64;100.00;100118.16;4987138;28;20044;-67
2021/01/06 01:45:16;;;;;;;26.42;14.63;;;;;;;2.62;100.00;100112.16;5000823;28;20414;-67
2021/01/06 01:48:02;;;;;;;24.55;14.30;;;;;;;2.65;100.00;100111.97;5015582;28;20114;-68
2021/01/06 01:50:46;;;;;;;25.85;14.93;;;;;;;2.67;100.00;100112.69;5000730;28;20057;-67
2021/01/06 01:53:32;;;;;;;;;;;;;;;2.66;100.00;100113.66;5001011;28;20096;-67
2021/01/06 01:56:18;;;;;;;29.15;14.82;;;;;;;2.66;100.00;100111.88;5000718;28;19921;-67
2021/01/06 01:59:04;;;;;;;25.75;14.95;;;;;;;2.69;100.00;100113.44;5015430;28;20140;-67
2021/01/06 02:01:49;;;;;;;26.02;15.23;;;;;;;2.65;100.00;100118.03;5015280;28;20049;-67
2021/01/06 02:04:39;;;;;;;25.30;14.68;;;;;;;2.70;100.00;100115.13;5000701;28;20407;-68
2021/01/06 02:07:26;;;;;;;23.88;14.52;;;;;;;2.72;100.00;100123.78;5000777;28;20136;-68
2021/01/06 02:10:17;;;;;;;24.95;14.77;;;;;;;2.71;100.00;100117.66;4986564;28;20524;-68
2021/01/06 02:13:04;;;;;;;23.80;13.93;;;;;;;2.72;100.00;100113.25;5000691;28;20096;-67
2021/01/06 02:16:09;;;;;;;24.58;14.25;;;;;;;2.63;100.00;100119.94;4986727;28;20056;-67
2021/01/06 02:18:53;;;;;;;;;;;;;;;2.62;100.00;100120.06;5000548;28;20053;-67
2021/01/06 02:21:37;;;;;;;23.33;13.95;;;;;;;2.65;100.00;100123.31;5015065;28;19960;-68
2021/01/06 02:24:21;;;;;;;23.75;13.50;;;;;;;2.66;100.00;100114.50;5015278;28;20141;-67
2021/01/06 02:27:06;;;;;;;22.27;14.10;;;;;;;2.66;100.00;100114.50;5000013;28;20074;-68
2021/01/06 02:29:50;;;;;;;23.17;13.50;;;;;;;2.69;100.00;100123.97;5016795;22;20136;-64
2021/01/06 02:32:35;;;;;;;22.40;13.48;;;;;;;2.66;100.00;100121.53;4994309;28;20054;-66
2021/01/06 02:35:20;;;;;;;22.45;13.45;;;;;;;2.71;100.00;100122.09;4994470;28;20057;-66
2021/01/06 02:38:04;;;;;;;23.30;14.80;;;;;;;2.64;100.00;100120.81;4995324;28;20049;-66
2021/01/06 02:40:50;;;;;;;;;;;;;;;2.59;100.00;100117.59;4980633;28;20058;-66
2021/01/06 02:43:35;;;;;;;23.98;13.60;;;;;;;2.65;100.00;100119.84;4994045;28;19960;-66
2021/01/06 02:46:19;;;;;;;23.30;13.68;;;;;;;2.67;100.00;100120.59;4995188;28;20108;-66
2021/01/06 02:49:04;;;;;;;22.55;12.95;;;;;;;2.56;100.00;100120.44;4980132;28;20411;-66
2021/01/06 02:52:10;;;;;;;22.08;12.93;;;;;;;2.56;100.00;100117.81;4994096;28;20057;-66
2021/01/06 02:54:55;;;;;;;20.92;12.95;;;;;;;2.61;100.00;100113.94;4994040;28;20093;-67
2021/01/06 02:57:39;;;;;;;22.42;13.60;;;;;;;2.59;100.00;100112.34;4993984;28;20549;-63
2021/01/06 03:00:26;;;;;;;21.65;13.60;;;;;;;2.59;100.00;100113.19;4993677;28;20045;-66
2021/01/06 03:03:12;;;;;;;20.30;12.43;;;;;;;2.59;100.00;100107.06;4993645;28;20599;-66
2021/01/06 03:06:29;;;;;;;21.92;12.77;;;;;;;2.64;100.00;100112.91;4994813;28;20099;-66
2021/01/06 03:09:27;;;;;;;23.73;13.85;;;;;;;2.54;100.00;100109.16;4973742;28;20506;-66
2021/01/06 03:12:17;;;;;;;24.05;14.50;;;;;;;2.54;100.00;100112.63;4994241;28;20097;-66
2021/01/06 03:15:01;;;;;;;21.73;13.48;;;;;;;2.55;100.00;100100.34;4993682;28;20514;-65
2021/01/06 03:17:45;;;;;;;21.85;13.35;;;;;;;2.55;100.00;100089.81;4993670;28;20053;-65
2021/01/06 03:20:33;;;;;;;22.63;13.63;;;;;;;2.53;100.00;100089.06;4994325;28;20049;-66
2021/01/06 03:23:18;;;;;;;21.70;12.93;;;;;;;2.50;100.00;100090.09;4993517;28;20081;-65
2021/01/06 03:26:06;;;;;;;20.27;12.88;;;;;;;2.49;100.00;100084.94;4993251;28;20096;-65
2021/01/06 03:28:51;;;;;;;21.40;12.98;;;;;;;2.49;100.00;100091.03;4993239;28;20053;-66
2021/01/06 03:31:43;;;;;;;20.10;12.30;;;;;;;2.50;100.00;100083.97;4994058;28;20053;-66
2021/01/06 03:34:36;;;;;;;21.65;13.00;;;;;;;2.49;100.00;100084.94;4993385;28;20118;-66
2021/01/06 03:37:29;;;;;;;21.10;13.07;;;;;;;2.53;100.00;100087.25;4993341;28;20141;-65
2021/01/06 03:40:19;;;;;;;22.25;12.60;;;;;;;2.51;100.00;100089.16;4993844;28;20049;-66
2021/01/06 03:43:06;;;;;;;21.00;12.90;;;;;;;2.55;100.00;100084.53;4993120;28;20096;-66
2021/01/06 03:45:53;;;;;;;24.02;12.93;;;;;;;2.60;100.00;100071.91;4993315;28;20157;-66
2021/01/06 03:48:52;;;;;;;19.45;12.25;;;;;;;2.55;100.00;100082.78;4993167;28;20057;-66
2021/01/06 03:52:04;;;;;;;21.38;12.82;;;;;;;2.64;100.00;100073.44;4993143;28;20506;-66
2021/01/06 03:55:03;;;;;;;22.30;13.05;;;;;;;2.57;100.00;100069.50;4994096;28;20188;-66
2021/01/06 03:57:56;;;;;;;22.95;13.20;;;;;;;2.51;100.00;100072.53;4979634;28;20080;-66
2021/01/06 04:00:41;;;;;;;19.58;11.93;;;;;;;2.47;100.00;100072.84;4992827;28;20128;-66
2021/01/06 04:03:50;;;;;;;20.50;12.10;;;;;;;2.49;100.00;100072.63;4992901;28;20125;-66
2021/01/06 04:06:36;;;;;;;21.85;12.50;;;;;;;2.49;100.00;100067.38;4993037;28;20053;-65
2021/01/06 04:09:23;;;;;;;23.58;12.70;;;;;;;2.45;100.00;100067.66;4993853;28;20054;-65
2021/01/06 04:12:10;;;;;;;19.60;12.45;;;;;;;2.48;100.00;100067.44;4992818;28;20423;-65
2021/01/06 04:14:54;;;;;;;23.60;12.05;;;;;;;2.51;100.00;100062.00;4992708;28;20089;-66
2021/01/06 04:17:44;;;;;;;23.13;13.27;;;;;;;2.55;100.00;100064.34;4992941;28;20053;-66
2021/01/06 04:20:34;;;;;;;22.30;12.20;;;;;;;2.54;100.00;100067.06;4978893;28;20411;-66
2021/01/06 04:23:20;;;;;;;21.88;12.23;;;;;;;2.50;100.00;100063.78;4993569;28;20124;-65
2021/01/06 04:26:05;;;;;;;22.23;13.02;;;;;;;2.52;100.00;100058.44;4996889;28;20088;-62
2021/01/06 04:28:49;;;;;;;22.98;12.90;;;;;;;2.51;100.00;100056.75;4982854;28;20115;-66
2021/01/06 04:31:33;;;;;;;;;;;;;;;2.49;100.00;100063.88;4997024;28;20108;-67
2021/01/06 04:34:17;;;;;;;23.20;12.80;;;;;;;2.49;100.00;100062.09;4997417;28;19980;-66
2021/01/06 04:37:01;;;;;;;21.80;12.52;;;;;;;2.53;100.00;100063.59;4997341;28;20415;-63
2021/01/06 04:39:45;;;;;;;20.63;12.15;;;;;;;2.51;100.00;100062.00;4982633;28;20045;-66
2021/01/06 04:42:30;;;;;;;23.92;12.98;;;;;;;2.49;100.00;100058.63;4997417;28;20049;-66
2021/01/06 04:45:26;;;;;;;20.00;12.20;;;;;;;2.48;100.00;100068.31;4997193;28;20524;-66
2021/01/06 04:48:32;;;;;;;18.35;11.38;;;;;;;2.47;100.00;100065.78;4997103;28;20141;-65
2021/01/06 04:51:26;;;;;;;21.15;11.98;;;;;;;2.50;100.00;100061.16;4996252;28;20540;-66
2021/01/06 04:54:52;;;;;;;22.40;12.30;;;;;;;2.43;100.00;100064.28;4995990;28;20057;-66
2021/01/06 04:57:44;;;;;;;21.10;12.50;;;;;;;2.48;100.00;100070.09;4982474;28;20061;-66
2021/01/06 05:00:47;;;;;;;22.80;12.20;;;;;;;2.44;100.00;100061.53;4995939;28;20049;-66
2021/01/06 05:03:54;;;;;;;22.20;12.20;;;;;;;2.44;100.00;100071.25;4996005;28;20133;-66
2021/01/06 05:06:51;;;;;;;24.90;12.95;;;;;;;2.49;100.00;100063.88;4981988;28;20115;-65
2021/01/06 05:09:43;;;;;;;20.27;12.40;;;;;;;2.50;100.00;100073.44;4995938;28;20068;-66
2021/01/06 05:12:33;;;;;;;18.88;11.07;;;;;;;2.54;100.00;100072.34;4995872;28;20044;-66
2021/01/06 05:15:28;;;;;;;20.45;12.02;;;;;;;2.56;100.00;100068.66;4995762;28;20514;-65
2021/01/06 05:18:12;;;;;;;20.67;11.30;;;;;;;2.61;100.00;100068.38;4996851;28;20177;-66
2021/01/06 05:20:56;;;;;;;19.88;11.80;;;;;;;2.54;100.00;100067.06;4995479;28;20097;-65
2021/01/06 05:23:41;;;;;;;20.55;11.32;;;;;;;2.54;100.00;100067.06;4996678;28;20054;-66
2021/01/06 05:26:25;;;;;;;19.73;11.25;;;;;;;2.54;100.00;100069.72;4982029;28;20049;-66
2021/01/06 05:29:21;;;;;;;18.65;10.85;;;;;;;2.53;100.00;100071.47;4981479;28;20143;-66
2021/01/06 05:32:06;;;;;;;18.83;11.93;;;;;;;2.59;100.00;100076.34;4995557;28;20093;-65
2021/01/06 05:34:54;;;;;;;19.85;12.30;;;;;;;2.55;100.00;100071.38;4995199;28;20065;-65
2021/01/06 05:37:38;;;;;;;19.95;12.13;;;;;;;2.56;100.00;100065.19;4995535;28;20053;-65
2021/01/06 05:40:22;;;;;;;21.50;11.63;;;;;;;2.55;100.00;100069.63;4981447;28;20135;-65
2021/01/06 05:43:19;;;;;;;19.67;12.02;;;;;;;2.60;100.00;100074.56;4996147;28;20077;-65
2021/01/06 05:46:07;;;;;;;24.98;12.73;;;;;;;2.54;100.00;100070.53;4995395;28;20577;-66
2021/01/06 05:49:06;;;;;;;18.60;11.27;;;;;;;2.59;100.00;100075.50;4995433;28;20521;-66
2021/01/06 05:51:56;;;;;;;19.13;11.20;;;;;;;2.54;100.00;100083.69;4995189;28;20048;-66
2021/01/06 05:54:47;;;;;;;20.05;11.75;;;;;;;2.56;100.00;100073.06;4995192;28;20045;-65
2021/01/06 05:57:42;;;;;;;21.40;12.35;;;;;;;2.56;100.00;100071.31;4995064;28;20045;-66
2021/01/06 06:01:04;;;;;;;18.85;11.75;;;;;;;2.56;100.00;100086.22;4994750;28;20057;-66
2021/01/06 06:04:23;;;;;;;21.08;11.70;;;;;;;2.53;100.00;100087.25;4995774;28;20103;-66
2021/01/06 06:07:15;;;;;;;20.05;11.85;;;;;;;2.55;100.00;100084.53;4957945;28;20056;-66
2021/01/06 06:10:11;;;;;;;19.73;11.23;;;;;;;2.49;100.00;100091.03;4995520;28;20129;-65
2021/01/06 06:12:55;;;;;;;19.35;11.98;;;;;;;2.50;100.00;100086.59;4994818;28;20129;-65
2021/01/06 06:15:49;;;;;;;18.10;11.93;;;;;;;2.57;100.00;100098.44;4995715;28;20478;-65
2021/01/06 06:18:57;;;;;;;19.17;11.57;;;;;;;2.57;100.00;100096.66;4994793;28;20104;-66
2021/01/06 06:22:00;;;;;;;21.92;12.48;;;;;;;2.54;100.00;100093.38;4994677;28;20508;-65
2021/01/06 06:25:13;;;;;;;19.95;11.98;;;;;;;2.55;100.00;100093.28;4995533;28;20538;-65
2021/01/06 06:28:05;;;;;;;21.75;13.20;;;;;;;2.56;100.00;100094.13;4994559;28;20049;-65
2021/01/06 06:30:55;;;;;;;21.70;12.57;;;;;;;2.55;100.00;100095.06;4994032;28;20526;-66
2021/01/06 06:33:40;;;;;;;19.80;11.45;;;;;;;2.60;100.00;100098.22;4995424;28;20075;-65
2021/01/06 06:36:27;;;;;;;18.15;11.35;;;;;;;2.56;100.00;100096.75;4994436;28;20049;-66
2021/01/06 06:39:34;;;;;;;20.63;12.73;;;;;;;2.54;100.00;100094.22;4994011;28;20049;-66
2021/01/06 06:42:27;;;;;;;19.25;11.73;;;;;;;2.53;100.00;100096.97;4994995;28;20085;-66
2021/01/06 06:45:12;;;;;;;20.20;11.68;;;;;;;2.53;100.00;100091.69;4994232;28;20096;-65
2021/01/06 06:48:10;;;;;;;18.42;11.25;;;;;;;2.54;100.00;100106.53;4994971;28;20109;-65
2021/01/06 06:51:03;;;;;;;19.15;11.85;;;;;;;2.56;100.00;100104.66;4995309;28;20053;-64
2021/01/06 06:54:09;;;;;;;22.13;12.60;;;;;;;2.58;100.00;100108.03;4994215;28;20380;-65
2021/01/06 06:56:57;;;;;;;22.33;12.65;;;;;;;2.61;100.00;100118.38;4995082;28;20080;-65
2021/01/06 07:00:00;;;;;;;19.85;12.00;;;;;;;2.59;100.00;100114.97;4994814;28;20089;-65
2021/01/06 07:02:51;;;;;;;18.63;11.30;;;;;;;2.58;100.00;100116.78;4994728;28;20139;-66
2021/01/06 07:05:42;;;;;;;20.98;11.85;;;;;;;2.61;100.00;100113.94;4993810;28;20049;-66
2021/01/06 07:08:39;;;;;;;20.02;11.65;;;;;;;2.54;100.00;100117.06;4993526;28;20076;-66
2021/01/06 07:11:39;;;;;;;18.15;11.40;;;;;;;2.53;100.00;100115.38;4993825;28;20105;-66
2021/01/06 07:14:30;;;;;;;18.60;11.45;;;;;;;2.47;100.00;100118.38;4993513;28;20053;-66
2021/01/06 07:17:37;;;;;;;19.80;11.38;;;;;;;2.45;100.00;100115.00;4993676;28;20561;-66
2021/01/06 07:20:38;;;;;;;18.90;11.55;;;;;;;2.52;100.00;100122.41;4993561;28;20120;-66
2021/01/06 07:23:23;;;;;;;20.85;10.57;;;;;;;2.52;100.00;100114.53;4994318;28;20509;-65
2021/01/06 07:26:38;;;;;;;16.10;10.15;;;;;;;2.49;100.00;100117.34;4979921;28;20440;-66
2021/01/06 07:29:30;;;;;;;19.00;11.23;;;;;;;2.48;100.00;100125.34;4994019;28;20080;-66
2021/01/06 07:32:14;;;;;;;19.20;10.77;;;;;;;2.48;100.00;100125.34;4993371;28;20139;-66
2021/01/06 07:34:58;;;;;;;15.70;10.07;;;;;;;2.46;100.00;100124.59;4993416;28;20541;-66
2021/01/06 07:37:47;;;;;;;17.92;11.30;;;;;;;2.42;100.00;100123.09;4979679;28;20101;-65
2021/01/06 07:40:38;;;;;;;20.10;11.85;;;;;;;2.42;100.00;100131.00;4993028;28;20053;-66
2021/01/06 07:43:25;;;;;;;17.60;11.57;;;;;;;2.41;100.00;100131.94;4993269;28;20045;-66
2021/01/06 07:46:14;;;;;;;17.30;10.90;;;;;;;2.40;100.00;100138.13;4992975;28;20103;-66
2021/01/06 07:49:31;;;;;;;19.42;11.50;;;;;;;2.42;100.00;100136.25;4994110;28;20414;-66
2021/01/06 07:52:21;;;;;;;17.65;11.32;;;;;;;2.43;100.00;100141.41;4991941;28;20109;-66
2021/01/06 07:55:20;;;;;;;19.80;11.75;;;;;;;2.44;100.00;100155.41;4993992;28;20044;-66
2021/01/06 07:58:07;;;;;;;20.33;12.02;;;;;;;2.48;100.00;100146.38;4992796;28;20581;-66
2021/01/06 08:00:58;;;;;;;21.30;11.73;;;;;;;2.45;100.00;100146.59;4993732;28;20053;-65
2021/01/06 08:03:57;;;;;;;21.48;12.70;;;;;;;2.51;100.00;100154.09;4992837;28;20050;-65
2021/01/06 08:06:49;;;;;;;17.05;10.93;;;;;;;2.57;100.00;100151.06;4993912;28;20550;-65
2021/01/06 08:09:39;;;;;;;18.30;10.73;;;;;;;2.58;100.00;100158.88;4979372;28;20060;-65
2021/01/06 08:12:32;;;;;;;17.60;10.48;;;;;;;2.61;100.00;100152.59;4992937;28;20184;-66
2021/01/06 08:15:19;;;;;;;17.40;10.32;;;;;;;2.63;100.00;100150.69;4992694;28;20122;-65
2021/01/06 08:18:10;;;;;;;17.65;10.88;;;;;;;2.59;100.00;100150.03;4993697;28;20562;-66
2021/01/06 08:21:23;;;;;;;18.15;11.32;;;;;;;2.70;100.00;100157.22;4992788;28;20050;-65
2021/01/06 08:24:20;;;;;;;23.20;11.95;;;;;;;2.69;100.00;100156.41;4992627;28;20104;-65
2021/01/06 08:27:04;;;;;;;20.98;12.50;;;;;;;2.66;100.00;100161.00;4993595;28;20415;-66
2021/01/06 08:29:48;;;;;;;21.50;12.30;;;;;;;2.70;100.00;100157.22;5010193;23;20049;-68
2021/01/06 08:32:32;;;;;;;20.15;12.52;;;;;;;2.73;100.00;100162.31;5013582;28;20056;-68
2021/01/06 08:35:20;;;;;;;20.52;12.15;;;;;;;2.72;100.00;100160.63;5013425;28;20103;-68
2021/01/06 08:38:24;;;;;;;19.85;11.77;;;;;;;2.76;100.00;100167.38;5012318;28;20052;-68
2021/01/06 08:41:16;;;;;;;22.98;12.40;;;;;;;2.83;100.00;100164.25;5013549;28;20517;-67
2021/01/06 08:44:01;;;;;;;17.75;11.32;;;;;;;2.78;100.00;100160.22;4998783;28;20052;-67
2021/01/06 08:46:54;;;;;;;20.70;13.02;;;;;;;2.81;100.00;100160.03;5013727;28;20184;-69
2021/01/06 08:49:40;;;;;;;21.65;12.23;;;;;;;2.86;100.00;100163.22;4984339;28;20111;-68
2021/01/06 08:52:26;;;;;;;24.10;11.45;;;;;;;2.88;100.00;100163.97;4998301;28;20481;-68
2021/01/06 08:55:21;;;;;;;19.35;11.40;;;;;;;2.90;100.00;100167.34;5013256;28;20553;-68
2021/01/06 08:58:07;;;;;;;20.80;12.40;;;;;;;2.88;100.00;100177.13;4998066;28;20116;-68
2021/01/06 09:00:54;;;;;;;24.63;14.10;;;;;;;2.86;100.00;100169.34;4998106;28;20053;-67
2021/01/06 09:04:03;;;;;;;21.35;13.55;;;;;;;2.92;100.00;100173.38;5013056;28;20049;-67
2021/01/06 09:06:51;;;;;;;22.60;13.60;;;;;;;2.95;100.00;100170.53;4997217;28;20048;-68
2021/01/06 09:09:42;;;;;;;23.33;13.80;;;;;;;3.03;100.00;100176.97;4998979;28;20489;-68
2021/01/06 09:12:50;;;;;;;21.73;12.45;;;;;;;3.05;100.00;100185.63;5001430;28;20100;-67
2021/01/06 09:15:45;;;;;;;21.67;12.48;;;;;;;3.00;100.00;100179.81;5001755;28;20053;-67
2021/01/06 09:18:34;;;;;;;24.38;12.90;;;;;;;3.04;100.00;100175.19;5001586;28;20049;-68
2021/01/06 09:21:21;;;;;;;23.38;13.90;;;;;;;3.11;100.00;100179.09;5001666;28;20104;-66
2021/01/06 09:24:22;;;;;;;22.98;13.60;;;;;;;3.09;100.00;100183.63;5001222;28;20049;-66
2021/01/06 09:27:20;;;;;;;25.17;13.75;;;;;;;3.10;100.00;100183.56;5001607;28;20045;-68
2021/01/06 09:30:14;;;;;;;22.00;13.70;;;;;;;3.13;100.00;100193.03;5001252;28;20041;-68
2021/01/06 09:33:00;;;;;;;23.30;13.27;;;;;;;3.25;100.00;100189.59;5016326;28;20100;-67
2021/01/06 09:35:45;;;;;;;20.50;12.18;;;;;;;3.23;100.00;100194.97;5001268;28;20052;-67
2021/01/06 09:38:36;;;;;;;19.85;12.10;;;;;;;3.19;100.00;100200.53;5001337;28;20056;-67
2021/01/06 09:41:24;;;;;;;19.88;12.30;;;;;;;3.29;100.00;100198.97;5001131;28;20068;-68
2021/01/06 09:44:09;;;;;;;19.65;12.25;;;;;;;3.36;100.00;100198.47;5001192;28;20100;-67
2021/01/06 09:47:06;;;;;;;16.83;11.25;;;;;;;3.32;100.00;100204.03;5001089;28;20056;-67
2021/01/06 09:49:54;;;;;;;19.35;11.32;;;;;;;3.43;100.00;100196.31;4987212;28;20398;-67
2021/01/06 09:52:40;;;;;;;16.58;11.23;;;;;;;3.45;100.00;100199.69;5000887;28;20121;-67
2021/01/06 09:55:25;;;;;;;18.63;10.73;;;;;;;3.36;100.00;100195.84;5015506;28;20088;-67
2021/01/06 09:58:24;;;;;;;15.43;10.07;;;;;;;3.38;100.00;100193.97;5000856;28;20180;-67
2021/01/06 10:01:31;;;;;;;14.32;9.32;;;;;;;3.34;100.00;100192.47;5015620;28;20521;-67
2021/01/06 10:04:21;;;;;;;14.82;9.10;;;;;;;3.31;100.00;100194.44;5000708;28;20080;-67
2021/01/06 10:07:38;;;;;;;14.88;8.73;;;;;;;3.25;100.00;100200.97;5000472;28;20104;-69
2021/01/06 10:10:26;;;;;;;14.05;9.35;;;;;;;3.27;100.00;100198.25;5000362;28;20421;-68
2021/01/06 10:13:12;;;;;;;15.90;9.48;;;;;;;3.25;100.00;100202.78;5000534;28;20482;-68
2021/01/06 10:16:03;;;;;;;14.60;9.07;;;;;;;3.24;100.00;100201.09;5000569;28;20053;-68
2021/01/06 10:19:10;;;;;;;13.88;9.25;;;;;;;3.19;100.00;100192.63;5015182;28;20048;-68
2021/01/06 10:22:02;;;;;;;15.40;9.20;;;;;;;3.23;100.00;100194.13;5014256;28;20107;-68
2021/01/06 10:24:46;;;;;;;18.52;10.25;;;;;;;3.26;100.00;100180.75;4986427;28;20052;-68
2021/01/06 10:27:38;;;;;;;18.65;10.15;;;;;;;3.30;100.00;100196.25;5000326;28;20048;-68
2021/01/06 10:30:24;;;;;;;16.35;9.90;;;;;;;3.34;100.00;100187.19;4999830;28;20100;-67
2021/01/06 10:33:21;;;;;;;15.70;10.27;;;;;;;3.48;100.00;100188.94;4999907;28;20052;-67
2021/01/06 10:36:39;;;;;;;15.70;9.88;;;;;;;3.50;100.00;100187.03;4999941;28;20171;-67
2021/01/06 10:39:29;;;;;;;15.63;10.32;;;;;;;3.56;100.00;100189.28;5000010;28;20119;-67
2021/01/06 10:42:22;;;;;;;16.38;10.20;;;;;;;3.42;100.00;100184.06;5014978;28;20095;-66
2021/01/06 10:45:11;;;;;;;18.05;10.85;;;;;;;3.55;100.00;100184.94;5014604;28;20096;-66
2021/01/06 10:47:55;;;;;;;20.23;12.30;;;;;;;3.62;100.00;100184.44;5014703;28;20517;-66
2021/01/06 10:50:43;;;;;;;20.05;11.07;;;;;;;3.70;100.00;100190.03;4999762;28;20107;-67
2021/01/06 10:53:29;;;;;;;20.27;12.90;;;;;;;3.68;100.00;100180.53;4986981;28;20076;-66
2021/01/06 10:56:15;;;;;;;18.48;11.00;;;;;;;3.66;100.00;100183.25;5014391;28;20052;-67
2021/01/06 10:59:14;;;;;;;19.13;10.88;;;;;;;3.70;100.00;100183.91;5014624;28;20052;-66
2021/01/06 11:02:14;;;;;;;18.38;11.65;;;;;;;3.71;100.00;100169.78;4999635;28;20041;-67
2021/01/06 11:05:14;;;;;;;19.70;11.32;;;;;;;3.67;100.00;100168.31;4999685;28;20053;-67
2021/01/06 11:08:10;;;;;;;16.45;10.90;;;;;;;3.70;100.00;100168.09;4985800;28;20052;-67
2021/01/06 11:11:11;;;;;;;14.75;10.13;;;;;;;3.65;100.00;100175.47;5014319;28;20045;-67
2021/01/06 11:14:16;;;;;;;16.92;10.85;;;;;;;3.71;100.00;100165.34;5014616;28;20501;-67
2021/01/06 11:17:19;;;;;;;15.95;10.85;;;;;;;3.79;100.00;100162.19;5014044;28;20052;-65
2021/01/06 11:20:34;;;;;;;16.08;11.02;;;;;;;3.80;100.00;100162.09;5013950;28;20414;-67
2021/01/06 11:23:28;;;;;;;16.95;11.25;;;;;;;3.90;100.00;100165.81;5000549;28;20092;-67
2021/01/06 11:26:30;;;;;;;20.73;12.57;;;;;;;3.74;100.00;100161.69;5015390;28;20057;-67
2021/01/06 11:29:29;;;;;;;21.45;12.20;;;;;;;3.70;100.00;100158.41;4999207;28;20044;-67
2021/01/06 11:32:24;;;;;;;18.40;12.05;;;;;;;3.76;100.00;100155.31;4998965;28;20053;-67
2021/01/06 11:35:15;;;;;;;18.85;12.27;;;;;;;3.79;100.00;100151.66;4998882;28;20480;-67
2021/01/06 11:38:00;;;;;;;17.52;11.98;;;;;;;3.84;100.00;100154.84;4985072;28;20045;-67
2021/01/06 11:40:50;;;;;;;20.80;13.18;;;;;;;3.92;100.00;100152.50;5013558;28;20052;-67
2021/01/06 11:43:47;;;;;;;20.83;13.13;;;;;;;3.99;100.00;100149.34;5013886;28;20044;-67
2021/01/06 11:46:31;;;;;;;21.48;12.88;;;;;;;4.06;100.00;100153.22;4998975;28;20049;-67
2021/01/06 11:49:21;;;;;;;20.30;13.20;;;;;;;4.10;100.00;100159.13;5013555;28;20414;-67
2021/01/06 11:52:29;;;;;;;18.70;12.40;;;;;;;4.15;100.00;100146.50;5013408;28;20489;-66
2021/01/06 11:55:16;;;;;;;22.83;13.95;;;;;;;4.19;100.00;100145.31;4998596;28;20100;-67
2021/01/06 11:58:14;;;;;;;19.15;11.90;;;;;;;4.25;100.00;100144.91;5013631;28;20108;-66
2021/01/06 12:01:07;;;;;;;18.63;11.65;;;;;;;4.32;100.00;100147.00;4984694;28;20052;-68
2021/01/06 12:04:13;;;;;;;19.63;12.25;;;;;;;4.31;100.00;100133.88;5013363;28;20107;-68
2021/01/06 12:07:38;;;;;;;22.60;13.13;;;;;;;4.36;100.00;100137.06;5013637;28;20402;-67
2021/01/06 12:10:25;;;;;;;;;;;;;;;4.35;100.00;100130.94;5013238;28;20099;-67
2021/01/06 12:13:32;;;;;;;22.30;11.77;;;;;;;4.41;100.00;100124.38;5013603;28;20008;-67
2021/01/06 12:16:20;;;;;;;23.40;14.10;;;;;;;4.50;100.00;100129.84;4998533;28;20414;-68
2021/01/06 12:19:04;;;;;;;18.20;10.90;;;;;;;4.50;100.00;100129.00;4998291;28;20426;-67
2021/01/06 12:21:53;;;;;;;17.08;10.68;;;;;;;4.46;100.00;100127.53;4998317;28;20057;-67
2021/01/06 12:24:37;;;;;;;18.55;11.20;;;;;;;4.38;100.00;100127.25;4998496;28;20096;-67
2021/01/06 12:27:27;;;;;;;17.98;11.05;;;;;;;4.32;100.00;100125.03;4998346;28;20125;-68
2021/01/06 12:30:11;;;;;;;16.05;11.00;;;;;;;4.31;100.00;100128.63;4998249;28;20553;-68
2021/01/06 12:33:15;;;;;;;16.33;10.38;;;;;;;4.26;100.00;100126.31;5013016;28;20419;-68
2021/01/06 12:36:11;;;;;;;17.17;10.57;;;;;;;4.34;100.00;100123.97;4998502;28;20040;-68
2021/01/06 12:39:18;;;;;;;15.43;10.07;;;;;;;4.38;100.00;100129.88;4998439;28;20064;-68
2021/01/06 12:42:19;;;;;;;15.40;9.80;;;;;;;4.33;100.00;100122.28;4998189;28;20076;-68
2021/01/06 12:45:29;;;;;;;17.75;9.82;;;;;;;4.24;100.00;100120.28;5015098;28;20585;-68
2021/01/06 12:48:20;;;;;;;16.55;9.75;;;;;;;4.18;100.00;100119.88;5001959;28;20414;-68
2021/01/06 12:51:16;;;;;;;15.65;9.85;;;;;;;4.19;100.00;100129.47;5002086;28;20557;-67
2021/01/06 12:54:06;;;;;;;14.38;9.38;;;;;;;4.13;100.00;100130.75;5002321;28;20131;-68
2021/01/06 12:57:07;;;;;;;15.40;10.20;;;;;;;4.12;100.00;100128.22;4988163;28;20072;-68
2021/01/06 12:59:57;;;;;;;14.43;8.77;;;;;;;4.08;100.00;100138.13;5001651;28;20088;-67
2021/01/06 13:02:41;;;;;;;15.95;9.85;;;;;;;3.96;100.00;100132.88;5001947;28;20045;-67